Time;durP1;ratioP1;P1;durP2;ratioP2;P2;SDS_P1;SDS_P2;PMS_P1;PMS_P2;Temp;Humidity;BMP_temperature;BMP_pressure;BME280_temperature;BME280_humidity;BME280_pressure;Samples;Min_cycle;Max_cycle;Signal;HPM_P1;HPM_P2
2022/03/19 00:01:32;;;;;;;;;8.25;7.00;;;;;15.39;31.51;103206.31;5063905;28;62080;-81
2022/03/19 00:03:57;;;;;;;;;5.00;5.00;;;;;15.31;31.17;103197.84;5044414;28;63344;-81
2022/03/19 00:06:23;;;;;;;;;12.75;11.00;;;;;15.36;31.67;103198.19;5063764;28;61899;-82
2022/03/19 00:08:49;;;;;;;;;11.50;8.75;;;;;15.34;31.51;103203.38;5063431;28;61762;-82
2022/03/19 00:11:14;;;;;;;;;6.25;4.00;;;;;15.33;30.96;103197.97;5063607;28;61896;-82
2022/03/19 00:13:40;;;;;;;;;6.00;6.00;;;;;15.29;31.35;103201.22;5062745;28;62965;-81
2022/03/19 00:16:06;;;;;;;;;9.00;8.00;;;;;15.26;31.13;103204.59;5063533;28;61896;-82
2022/03/19 00:18:31;;;;;;;;;6.00;4.50;;;;;15.26;31.22;103203.69;5044849;28;62120;-82
2022/03/19 00:20:57;;;;;;;;;7.50;6.25;;;;;15.20;31.30;103206.84;5062230;28;61751;-82
2022/03/19 00:23:22;;;;;;;;;6.25;4.00;;;;;15.18;31.06;103205.84;5062909;28;62015;-82
2022/03/19 00:25:48;;;;;;;;;6.50;5.00;;;;;15.15;30.87;103212.69;5063095;28;62434;-82
2022/03/19 00:28:18;;;;;;;;;5.25;5.25;;;;;15.18;30.96;103210.22;5044631;28;61919;-81
2022/03/19 00:30:45;;;;;;;;;5.00;4.00;;;;;15.15;31.01;103210.03;5045164;28;61987;-82
2022/03/19 00:33:10;;;;;;;;;6.00;6.00;;;;;15.13;30.96;103215.22;5044252;28;63700;-82
2022/03/19 00:35:37;;;;;;;;;6.25;6.25;;;;;15.14;31.27;103209.09;5063183;28;61979;-82
2022/03/19 00:38:04;;;;;;;;;12.00;9.00;;;;;15.13;30.66;103212.56;5045161;28;61988;-82
2022/03/19 00:40:30;;;;;;;;;11.00;7.00;;;;;15.12;31.09;103205.44;5044952;28;61794;-82
2022/03/19 00:42:56;;;;;;;;;6.25;6.25;;;;;15.05;30.92;103205.88;5053933;28;62168;-82
2022/03/19 00:45:21;;;;;;;;;9.00;8.00;;;;;15.04;30.59;103204.00;5063165;28;61868;-82
2022/03/19 00:47:47;;;;;;;;;9.50;6.25;;;;;14.96;30.81;103202.63;5044229;28;61940;-81
2022/03/19 00:50:13;;;;;;;;;7.75;7.25;;;;;14.95;30.80;103208.72;5061892;28;61856;-82
2022/03/19 00:52:41;;;;;;;;;11.25;6.50;;;;;14.97;30.96;103202.72;5081461;28;64319;-82
2022/03/19 00:55:08;;;;;;;;;5.50;5.50;;;;;14.94;30.69;103199.88;5082970;28;61750;-81
2022/03/19 00:57:52;;;;;;;;;8.00;5.50;;;;;14.90;30.66;103196.09;5063969;28;61827;-81
2022/03/19 01:00:25;;;;;;;;;2.00;1.00;;;;;14.96;31.10;103190.31;5064754;28;61744;-81
2022/03/19 01:02:51;;;;;;;;;6.75;4.50;;;;;14.95;30.82;103196.41;5064373;28;63417;-82
2022/03/19 01:05:19;;;;;;;;;5.75;3.75;;;;;14.96;31.01;103197.34;5083216;28;62280;-81
2022/03/19 01:07:55;;;;;;;;;3.00;3.00;;;;;14.93;30.90;103196.31;5064376;28;61792;-81
2022/03/19 01:10:27;;;;;;;;;3.00;3.00;;;;;14.88;30.64;103184.50;5083376;28;61741;-81
2022/03/19 01:12:54;;;;;;;;;2.50;2.50;;;;;14.90;30.43;103179.34;5063962;28;61925;-81
2022/03/19 01:15:21;;;;;;;;;2.00;1.75;;;;;14.88;30.38;103178.31;5063930;28;62114;-81
2022/03/19 01:17:47;;;;;;;;;4.50;3.00;;;;;14.87;30.65;103179.16;5064476;28;61864;-81
2022/03/19 01:20:17;;;;;;;;;6.00;4.00;;;;;14.86;31.03;103170.28;5064732;28;61824;-81
2022/03/19 01:22:44;;;;;;;;;2.00;2.00;;;;;14.82;31.04;103168.25;5064381;28;63538;-82
2022/03/19 01:25:12;;;;;;;;;2.75;1.75;;;;;14.78;30.76;103170.59;5098403;27;61788;-81
2022/03/19 01:27:39;;;;;;;;;2.50;1.75;;;;;14.81;31.60;103176.09;5080113;27;61986;-81
2022/03/19 01:30:06;;;;;;;;;3.50;2.50;;;;;14.81;31.35;103170.81;5081055;28;62145;-82
2022/03/19 01:32:32;;;;;;;;;2.25;2.25;;;;;14.80;30.86;103175.16;5063926;28;64777;-81
2022/03/19 01:34:58;;;;;;;;;3.00;3.00;;;;;14.76;30.73;103173.16;5064487;28;61939;-81
2022/03/19 01:37:24;;;;;;;;;2.00;2.00;;;;;14.72;30.47;103166.75;5082791;28;61786;-81
2022/03/19 01:39:52;;;;;;;;;2.00;1.00;;;;;14.71;30.84;103164.00;5081333;28;61898;-81
2022/03/19 01:42:28;;;;;;;;;4.00;2.25;;;;;14.71;30.67;103172.81;5081641;28;62013;-82
2022/03/19 01:44:54;;;;;;;;;2.00;2.00;;;;;14.62;30.44;103166.94;5082115;28;61726;-81
2022/03/19 01:47:21;;;;;;;;;3.00;1.50;;;;;14.63;30.72;103160.84;5082670;28;61658;-82
2022/03/19 01:49:46;;;;;;;;;2.00;2.00;;;;;14.60;30.53;103158.00;5064213;28;61790;-82
2022/03/19 01:52:12;;;;;;;;;3.00;1.50;;;;;14.60;30.86;103165.91;5081932;28;62100;-82
2022/03/19 01:54:40;;;;;;;;;2.25;1.00;;;;;14.57;30.34;103152.53;5082593;28;61770;-82
2022/03/19 01:57:07;;;;;;;;;4.25;3.50;;;;;14.53;30.55;103146.06;5063347;28;61905;-82
2022/03/19 01:59:35;;;;;;;;;5.25;3.00;;;;;14.55;30.83;103153.19;5063618;28;61936;-81
2022/03/19 02:02:08;;;;;;;;;4.50;1.75;;;;;14.52;31.00;103149.53;5084137;28;61977;-81
2022/03/19 02:04:35;;;;;;;;;1.50;1.50;;;;;14.52;30.97;103146.91;5067613;28;62023;-81
2022/03/19 02:07:01;;;;;;;;;1.00;1.00;;;;;14.46;30.72;103146.50;5067621;28;61801;-82
2022/03/19 02:09:26;;;;;;;;;2.00;2.00;;;;;14.45;31.27;103146.38;5085762;28;61705;-82
2022/03/19 02:11:52;;;;;;;;;4.00;3.00;;;;;14.47;30.79;103142.09;5084803;28;63467;-81
2022/03/19 02:14:18;;;;;;;;;4.00;2.00;;;;;14.44;31.16;103142.81;5085014;28;61803;-81
2022/03/19 02:16:44;;;;;;;;;1.25;1.25;;;;;14.40;30.77;103138.16;5085838;28;61843;-82
2022/03/19 02:19:10;;;;;;;;;3.00;3.00;;;;;14.36;31.28;103137.84;5067317;28;62214;-82
2022/03/19 02:21:44;;;;;;;;;3.25;2.75;;;;;14.32;31.18;103142.91;5084988;28;62037;-81
2022/03/19 02:26:55;;;;;;;;;6.00;1.75;;;;;14.22;31.15;103129.88;5084588;28;61852;-82
2022/03/19 02:29:22;;;;;;;;;3.00;2.00;;;;;14.26;31.27;103125.72;5085321;28;61742;-82
2022/03/19 02:31:50;;;;;;;;;4.00;2.75;;;;;14.21;31.51;103129.81;5085057;28;62066;-81
2022/03/19 02:34:16;;;;;;;;;2.25;2.25;;;;;14.19;31.29;103124.41;5067106;28;61882;-81
2022/03/19 02:36:49;;;;;;;;;3.25;2.50;;;;;14.26;31.64;103125.72;5085759;28;61784;-81
2022/03/19 02:39:36;;;;;;;;;3.50;2.00;;;;;14.24;31.43;103120.34;5066554;28;61967;-81
2022/03/19 02:42:04;;;;;;;;;6.25;3.00;;;;;14.28;31.74;103118.81;5075159;28;63991;-81
2022/03/19 02:44:30;;;;;;;;;4.50;4.00;;;;;14.19;31.60;103115.59;5085205;28;61744;-82
2022/03/19 02:46:59;;;;;;;;;5.00;3.50;;;;;14.10;31.57;103118.53;5058826;28;61987;-82
2022/03/19 02:49:25;;;;;;;;;6.00;2.50;;;;;14.02;31.53;103112.72;5056396;28;61931;-82
2022/03/19 02:51:52;;;;;;;;;8.75;2.50;;;;;14.01;31.84;103113.53;5062930;28;64275;-81
2022/03/19 02:54:24;;;;;;;;;4.00;4.00;;;;;14.01;31.88;103120.50;5063543;28;62172;-81
2022/03/19 02:56:51;;;;;;;;;7.00;6.00;;;;;14.09;31.91;103111.38;5062302;28;61805;-81
2022/03/19 02:59:20;;;;;;;;;7.75;4.25;;;;;14.09;31.52;103109.66;5064710;28;62029;-82
2022/03/19 03:01:48;;;;;;;;;4.00;2.25;;;;;14.11;31.78;103105.38;5063935;28;62854;-82
2022/03/19 03:04:15;;;;;;;;;6.50;5.25;;;;;14.08;31.84;103110.47;5064632;28;61943;-81
2022/03/19 03:06:44;;;;;;;;;7.50;4.00;;;;;14.05;31.95;103107.66;5046370;28;61995;-82
2022/03/19 03:09:11;;;;;;;;;6.00;4.00;;;;;14.00;31.99;103106.41;5064652;28;62191;-81
2022/03/19 03:11:38;;;;;;;;;5.50;3.75;;;;;13.97;32.21;103102.63;5044460;28;61878;-81
2022/03/19 03:14:04;;;;;;;;;5.00;5.00;;;;;14.00;32.22;103106.41;5064454;28;61781;-82
2022/03/19 03:16:30;;;;;;;;;8.75;3.50;;;;;14.01;32.69;103113.53;5063116;28;61893;-81
2022/03/19 03:19:00;;;;;;;;;4.00;4.00;;;;;14.00;32.05;103102.84;5063037;28;61874;-82
2022/03/19 03:21:27;;;;;;;;;6.50;6.00;;;;;13.97;32.08;103105.28;5045616;28;65070;-82
2022/03/19 03:23:53;;;;;;;;;9.00;5.00;;;;;13.98;32.28;103100.09;5046162;28;61954;-82
2022/03/19 03:26:19;;;;;;;;;4.00;4.00;;;;;13.90;32.32;103099.59;5045178;28;61905;-81
2022/03/19 03:28:44;;;;;;;;;5.50;5.50;;;;;13.93;32.95;103090.06;5064252;28;61880;-81
2022/03/19 03:31:10;;;;;;;;;7.00;7.00;;;;;13.93;32.60;103095.34;5045711;28;64784;-81
2022/03/19 03:33:36;;;;;;;;;9.00;6.25;;;;;13.93;32.97;103090.97;5045934;28;62131;-81
2022/03/19 03:36:02;;;;;;;;;8.25;8.00;;;;;13.96;33.28;103085.88;5064269;28;61825;-82
2022/03/19 03:38:28;;;;;;;;;7.25;6.00;;;;;13.96;32.93;103080.59;5064306;28;62118;-82
2022/03/19 03:40:54;;;;;;;;;6.75;6.75;;;;;13.95;32.87;103078.78;5062626;28;61973;-81
2022/03/19 03:43:19;;;;;;;;;13.75;9.75;;;;;13.94;33.34;103068.09;5064214;28;61956;-81
2022/03/19 03:45:45;;;;;;;;;8.00;4.50;;;;;13.93;34.07;103074.22;5063798;28;61767;-81
2022/03/19 03:48:10;;;;;;;;;7.00;6.00;;;;;13.93;33.30;103072.47;5046111;28;61886;-81
2022/03/19 03:50:37;;;;;;;;;10.25;8.00;;;;;13.94;33.63;103070.75;5065504;28;62033;-81
2022/03/19 03:53:06;;;;;;;;;7.00;7.00;;;;;13.93;33.25;103071.56;5084167;28;61868;-82
2022/03/19 03:55:33;;;;;;;;;11.50;8.00;;;;;13.89;33.09;103068.72;5065129;28;61818;-81
2022/03/19 03:58:03;;;;;;;;;10.75;8.50;;;;;13.90;33.65;103072.25;5065282;28;61896;-81
2022/03/19 04:00:30;;;;;;;;;13.00;8.00;;;;;13.87;34.67;103058.88;5083478;28;62125;-82
2022/03/19 04:02:56;;;;;;;;;16.00;10.25;;;;;13.87;34.16;103065.06;5065633;28;62034;-82
2022/03/19 04:05:21;;;;;;;;;12.00;9.75;;;;;13.85;34.25;103071.03;5065762;28;61827;-82
2022/03/19 04:07:47;;;;;;;;;13.25;9.00;;;;;13.77;33.78;103067.88;5065770;28;61804;-81
2022/03/19 04:10:12;;;;;;;;;14.00;11.00;;;;;13.78;33.74;103071.44;5064262;28;63794;-82
2022/03/19 04:12:38;;;;;;;;;14.75;12.75;;;;;13.77;33.80;103073.16;5083679;28;62004;-81
2022/03/19 04:15:05;;;;;;;;;13.00;11.75;;;;;13.75;34.20;103076.50;5083687;28;61911;-82
2022/03/19 04:17:31;;;;;;;;;14.75;10.00;;;;;13.70;34.34;103078.84;5083934;28;61777;-81
2022/03/19 04:19:56;;;;;;;;;13.25;11.50;;;;;13.71;34.54;103078.03;5064861;28;64410;-81
2022/03/19 04:22:22;;;;;;;;;14.25;10.75;;;;;13.65;34.36;103078.53;5083464;28;61970;-81
2022/03/19 04:24:47;;;;;;;;;11.00;9.25;;;;;13.65;34.85;103075.88;5064107;28;62104;-81
2022/03/19 04:27:14;;;;;;;;;14.25;12.50;;;;;13.58;34.56;103076.28;5083022;28;62118;-82
2022/03/19 04:29:42;;;;;;;;;14.75;12.00;;;;;13.59;35.15;103075.47;5064340;28;64204;-82
2022/03/19 04:32:09;;;;;;;;;19.75;13.25;;;;;13.56;34.95;103077.91;5082301;27;61903;-81
2022/03/19 04:34:35;;;;;;;;;16.50;14.00;;;;;13.51;35.43;103081.91;5083715;28;61895;-81
2022/03/19 04:37:00;;;;;;;;;17.25;12.25;;;;;13.50;35.12;103077.47;5083627;28;61782;-82
2022/03/19 04:39:26;;;;;;;;;17.50;13.25;;;;;13.44;35.47;103080.59;5082322;28;61917;-81
2022/03/19 04:41:52;;;;;;;;;22.50;17.00;;;;;13.44;35.48;103079.69;5064515;28;61888;-81
2022/03/19 04:44:17;;;;;;;;;15.25;12.25;;;;;13.43;35.40;103080.47;5065020;28;62037;-81
2022/03/19 04:46:43;;;;;;;;;18.50;16.00;;;;;13.39;35.66;103079.38;5065321;28;61878;-82
2022/03/19 04:49:08;;;;;;;;;21.75;18.75;;;;;13.37;35.69;103085.31;5082336;28;62328;-82
2022/03/19 04:51:37;;;;;;;;;12.50;11.50;;;;;13.37;35.89;103080.97;5083293;28;61774;-81
2022/03/19 04:54:04;;;;;;;;;17.75;12.75;;;;;13.37;35.96;103074.75;5082985;28;61934;-82
2022/03/19 04:56:30;;;;;;;;;17.75;14.00;;;;;13.39;35.98;103075.78;5082505;28;62020;-81
2022/03/19 04:58:57;;;;;;;;;21.75;13.75;;;;;13.34;36.36;103070.19;5082385;28;62056;-81
2022/03/19 05:01:28;;;;;;;;;24.50;14.75;;;;;13.36;36.26;103078.22;5083337;28;61902;-81
2022/03/19 05:03:54;;;;;;;;;20.50;13.25;;;;;13.28;36.44;103067.09;5081548;27;62105;-81
2022/03/19 05:06:21;;;;;;;;;16.50;13.00;;;;;13.37;36.82;103072.13;5083364;28;61760;-82
2022/03/19 05:08:47;;;;;;;;;23.00;19.00;;;;;13.37;36.41;103065.16;5081878;28;63006;-82
2022/03/19 05:11:12;;;;;;;;;18.75;14.75;;;;;13.37;36.79;103061.56;5082896;28;61983;-81
2022/03/19 05:13:39;;;;;;;;;18.75;16.00;;;;;13.37;36.70;103062.50;5058653;28;62007;-81
2022/03/19 05:16:04;;;;;;;;;24.25;16.25;;;;;13.35;36.91;103061.50;5044573;28;61958;-81
2022/03/19 05:18:30;;;;;;;;;25.50;20.75;;;;;13.34;37.03;103072.84;5061954;28;62035;-81
2022/03/19 05:20:56;;;;;;;;;22.25;20.25;;;;;13.34;37.20;103071.94;5061032;28;62162;-81
2022/03/19 05:23:23;;;;;;;;;23.50;17.25;;;;;13.31;37.45;103070.00;5060996;28;61916;-81
2022/03/19 05:25:49;;;;;;;;;22.25;14.00;;;;;13.31;37.42;103069.09;5061014;28;61726;-80
2022/03/19 05:28:15;;;;;;;;;23.00;19.00;;;;;13.28;37.23;103069.72;5061302;28;61785;-81
2022/03/19 05:30:41;;;;;;;;;16.50;15.75;;;;;13.20;37.55;103076.22;5062552;28;61820;-82
2022/03/19 05:33:06;;;;;;;;;20.50;17.25;;;;;13.21;37.46;103075.38;5077887;28;61888;-81
2022/03/19 05:35:33;;;;;;;;;26.75;22.50;;;;;13.20;37.94;103073.56;5064149;28;61903;-81
2022/03/19 05:38:01;;;;;;;;;27.25;18.00;;;;;13.14;37.63;103075.78;5063571;28;63826;-81
2022/03/19 05:40:28;;;;;;;;;22.50;18.50;;;;;13.13;37.63;103072.19;5064217;28;61868;-81
2022/03/19 05:42:53;;;;;;;;;19.25;16.75;;;;;13.14;37.78;103068.78;5065761;28;61703;-82
2022/03/19 05:45:20;;;;;;;;;25.00;19.75;;;;;13.15;37.89;103069.69;5066248;28;61740;-81
2022/03/19 05:47:46;;;;;;;;;21.50;16.75;;;;;13.14;38.00;103068.78;5063884;28;63532;-81
2022/03/19 05:50:12;;;;;;;;;18.50;17.00;;;;;13.11;38.01;103068.56;5050082;28;61812;-80
2022/03/19 05:52:39;;;;;;;;;19.75;19.25;;;;;13.13;38.21;103068.66;5064354;28;61850;-81
2022/03/19 05:55:05;;;;;;;;;28.50;18.75;;;;;13.10;38.17;103078.19;5065919;28;61981;-82
2022/03/19 05:57:31;;;;;;;;;26.75;22.75;;;;;13.11;38.36;103073.84;5064359;28;62071;-81
2022/03/19 05:59:57;;;;;;;;;21.00;21.00;;;;;13.05;38.35;103074.31;5047502;28;61996;-81
2022/03/19 06:02:22;;;;;;;;;25.75;20.25;;;;;13.00;38.63;103075.69;5064263;28;61925;-81
2022/03/19 06:04:47;;;;;;;;;19.25;16.00;;;;;13.01;38.98;103082.81;5065234;28;61759;-81
2022/03/19 06:07:13;;;;;;;;;25.25;21.75;;;;;13.01;39.10;103084.53;5064777;28;62909;-81
2022/03/19 06:09:38;;;;;;;;;40.75;27.50;;;;;12.99;38.71;103083.50;5065243;28;62029;-81
2022/03/19 06:12:04;;;;;;;;;29.00;23.75;;;;;13.00;39.23;103080.97;5065314;28;62310;-81
2022/03/19 06:14:29;;;;;;;;;38.75;26.50;;;;;12.98;39.07;103082.59;5064133;28;62018;-81
2022/03/19 06:16:55;;;;;;;;;30.00;26.00;;;;;12.99;39.13;103080.88;5046470;28;61924;-81
2022/03/19 06:19:20;;;;;;;;;34.75;28.00;;;;;12.99;39.39;103080.88;5064683;28;61904;-81
2022/03/19 06:21:46;;;;;;;;;29.50;23.50;;;;;13.02;39.44;103083.72;5078859;28;62279;-81
2022/03/19 06:24:12;;;;;;;;;34.25;24.75;;;;;13.03;39.44;103078.56;5057975;28;62181;-82
2022/03/19 06:26:38;;;;;;;;;30.00;24.00;;;;;12.96;39.89;103075.34;5063947;28;62010;-81
2022/03/19 06:29:03;;;;;;;;;28.00;25.75;;;;;13.01;39.34;103081.91;5065037;28;62162;-82
2022/03/19 06:31:29;;;;;;;;;40.75;30.25;;;;;13.06;40.02;103078.75;5063800;28;61906;-81
2022/03/19 06:33:54;;;;;;;;;39.00;26.50;;;;;13.10;39.43;103082.53;5046603;28;62174;-80
2022/03/19 06:39:05;;;;;;;;;42.75;30.25;;;;;13.12;40.05;103077.38;5083447;28;62301;-79
2022/03/19 06:41:31;;;;;;;;;35.75;30.75;;;;;13.12;40.44;103078.28;5083396;28;61907;-79
2022/03/19 06:43:56;;;;;;;;;38.00;32.25;;;;;13.17;39.87;103083.88;5083396;27;61978;-80
2022/03/19 06:46:22;;;;;;;;;50.50;35.25;;;;;13.23;40.07;103066.78;5064848;28;62197;-80
2022/03/19 06:48:49;;;;;;;;;38.25;28.50;;;;;13.26;40.05;103067.00;5083353;28;61933;-81
2022/03/19 06:51:18;;;;;;;;;41.25;34.50;;;;;13.31;40.33;103077.91;5084507;28;62117;-80
2022/03/19 06:53:48;;;;;;;;;48.00;35.75;;;;;13.33;40.27;103072.75;5084375;28;61801;-80
2022/03/19 06:56:14;;;;;;;;;50.75;35.00;;;;;13.40;40.45;103072.34;5080864;28;62850;-80
2022/03/19 06:58:41;;;;;;;;;40.00;36.25;;;;;13.50;40.33;103073.09;5065756;28;62035;-80
2022/03/19 07:01:14;;;;;;;;;48.50;36.75;;;;;13.72;40.19;103069.28;5065870;28;61820;-80
2022/03/19 07:03:41;;;;;;;;;52.25;38.25;;;;;13.97;39.72;103076.22;5065658;28;61907;-82
2022/03/19 07:06:06;;;;;;;;;47.75;38.25;;;;;14.15;39.47;103066.91;5083613;28;62899;-80
2022/03/19 07:08:32;;;;;;;;;43.50;35.50;;;;;14.40;38.93;103074.72;5062581;28;61817;-81
2022/03/19 07:10:58;;;;;;;;;53.50;39.25;;;;;14.62;38.85;103066.50;5065622;28;61804;-77
2022/03/19 07:13:23;;;;;;;;;56.00;38.75;;;;;14.77;38.20;103065.66;5083818;28;61965;-80
2022/03/19 07:15:48;;;;;;;;;50.50;39.25;;;;;14.83;38.49;103066.06;5082711;28;61938;-78
2022/03/19 07:18:14;;;;;;;;;48.25;39.00;;;;;14.90;38.61;103058.59;5065018;28;62003;-78
2022/03/19 07:20:39;;;;;;;;;59.50;40.50;;;;;15.09;38.21;103065.06;5082475;28;62206;-79
2022/03/19 07:23:07;;;;;;;;;56.25;42.25;;;;;15.79;37.05;103072.84;5084821;28;61779;-75
2022/03/19 07:25:33;;;;;;;;;48.75;38.25;;;;;16.10;36.33;103065.00;5075159;27;62545;-76
2022/03/19 07:28:11;;;;;;;;;54.50;41.75;;;;;16.25;36.19;103064.97;5074809;28;61835;-76
2022/03/19 07:30:37;;;;;;;;;46.75;33.25;;;;;16.30;36.35;103072.38;5082092;28;61869;-78
2022/03/19 07:33:03;;;;;;;;;53.00;39.00;;;;;16.45;36.08;103066.09;5082638;28;62189;-73
2022/03/19 07:35:29;;;;;;;;;54.50;43.50;;;;;16.62;35.53;103069.72;5078574;27;62120;-79
2022/03/19 07:37:57;;;;;;;;;44.25;38.00;;;;;16.73;35.74;103063.25;5091773;27;62382;-80
2022/03/19 07:43:10;;;;;;;;;59.25;41.00;;;;;16.84;35.61;103067.47;5083724;28;61998;-78
2022/03/19 07:45:37;;;;;;;;;54.00;44.25;;;;;16.88;35.48;103066.81;5082562;28;61983;-78
2022/03/19 07:48:03;;;;;;;;;50.25;38.75;;;;;16.95;35.49;103068.06;5082789;27;62412;-78
2022/03/19 07:50:29;;;;;;;;;57.75;45.25;;;;;16.73;35.58;103069.50;5082719;28;61765;-78
2022/03/19 07:52:54;;;;;;;;;53.75;40.50;;;;;16.64;36.36;103066.31;5064800;28;62089;-78
2022/03/19 07:55:20;;;;;;;;;67.25;45.25;;;;;16.65;36.17;103062.84;5081581;28;61838;-79
2022/03/19 07:57:46;;;;;;;;;55.75;45.00;;;;;16.42;36.50;103064.19;5082208;28;61906;-78
2022/03/19 08:00:12;;;;;;;;;64.00;45.00;;;;;16.33;36.48;103055.72;5064639;28;61984;-79
2022/03/19 08:02:42;;;;;;;;;51.25;42.50;;;;;16.40;36.89;103067.59;5083709;28;61900;-80
2022/03/19 08:05:08;;;;;;;;;61.75;43.00;;;;;16.28;36.69;103065.13;5082595;28;63223;-79
2022/03/19 08:07:37;;;;;;;;;55.50;42.25;;;;;16.18;37.07;103060.16;5081480;28;62241;-76
2022/03/19 08:10:07;;;;;;;;;36.25;31.50;;;;;16.17;37.00;103053.91;5077630;28;61881;-79
2022/03/19 08:12:34;;;;;;;;;60.75;47.25;;;;;16.20;37.35;103058.50;5063277;28;61908;-79
2022/03/19 08:14:59;;;;;;;;;62.00;42.50;;;;;16.29;37.37;103056.38;5079697;27;62189;-80
2022/03/19 08:17:28;;;;;;;;;60.00;45.75;;;;;16.38;37.34;103048.94;5082522;28;61768;-78
2022/03/19 08:19:56;;;;;;;;;43.00;41.25;;;;;16.38;37.09;103050.69;5083468;28;62030;-81
2022/03/19 08:22:21;;;;;;;;;58.75;42.00;;;;;16.32;37.20;103056.53;5083932;28;61883;-80
2022/03/19 08:24:47;;;;;;;;;64.50;46.50;;;;;16.35;37.05;103047.03;5064064;28;64253;-80
2022/03/19 08:27:12;;;;;;;;;65.50;45.00;;;;;16.32;37.12;103056.53;5082621;28;62144;-80
2022/03/19 08:29:38;;;;;;;;;57.25;46.25;;;;;16.27;37.31;103052.72;5082117;27;61927;-79
2022/03/19 08:32:04;;;;;;;;;66.25;47.00;;;;;16.17;37.63;103045.06;5065099;28;62161;-79
2022/03/19 08:34:29;;;;;;;;;58.00;44.25;;;;;15.94;37.78;103044.66;5081550;27;64115;-80
2022/03/19 08:36:55;;;;;;;;;62.50;44.25;;;;;15.91;37.97;103048.00;5083542;28;61716;-80
2022/03/19 08:42:05;;;;;;;;;61.50;45.25;;;;;15.93;37.80;103042.81;5083069;28;61999;-80
2022/03/19 08:44:30;;;;;;;;;64.50;48.75;;;;;15.88;38.21;103031.03;5064121;28;65237;-80
2022/03/19 08:46:56;;;;;;;;;63.50;51.00;;;;;16.00;38.12;103042.31;5065089;28;61799;-80
2022/03/19 08:49:21;;;;;;;;;66.25;51.00;;;;;16.02;37.95;103040.69;5083082;28;61789;-80
2022/03/19 08:51:47;;;;;;;;;65.00;47.75;;;;;16.13;37.71;103046.59;5065105;28;61756;-80
2022/03/19 08:54:19;;;;;;;;;59.25;40.75;;;;;16.14;37.62;103049.34;5064435;28;62556;-80
2022/03/19 08:56:47;;;;;;;;;68.25;49.75;;;;;16.19;37.86;103038.13;5082247;28;62151;-80
2022/03/19 08:59:13;;;;;;;;;50.50;39.00;;;;;16.25;37.65;103047.31;5081410;28;62011;-80
2022/03/19 09:01:40;;;;;;;;;58.50;45.75;;;;;16.41;37.71;103032.28;5083204;28;61909;-80
2022/03/19 09:04:06;;;;;;;;;63.25;47.25;;;;;16.38;37.31;103034.78;5082301;28;62133;-79
2022/03/19 09:06:32;;;;;;;;;71.00;52.00;;;;;16.38;37.46;103027.72;5064828;28;62106;-81
2022/03/19 09:09:00;;;;;;;;;60.00;47.50;;;;;16.38;37.64;103037.44;5082972;28;61962;-80
2022/03/19 09:11:26;;;;;;;;;68.75;52.50;;;;;16.35;37.54;103033.78;5063855;28;62299;-80
2022/03/19 09:13:51;;;;;;;;;69.25;49.50;;;;;16.36;37.78;103035.59;5080124;28;64784;-80
2022/03/19 09:16:18;;;;;;;;;61.25;48.50;;;;;16.47;37.68;103040.59;5064592;28;61785;-80
2022/03/19 09:18:43;;;;;;;;;72.25;50.50;;;;;16.47;37.58;103033.53;5081738;28;61841;-80
2022/03/19 09:21:09;;;;;;;;;68.00;50.50;;;;;16.63;37.87;103031.78;5081896;28;62164;-80
2022/03/19 09:23:35;;;;;;;;;58.75;47.75;;;;;16.86;37.02;103034.00;5063935;28;63159;-80
2022/03/19 09:26:00;;;;;;;;;63.75;48.50;;;;;16.84;36.81;103027.69;5082136;28;62056;-80
2022/03/19 09:28:26;;;;;;;;;58.50;47.50;;;;;16.89;37.13;103026.19;5082021;28;62201;-80
2022/03/19 09:30:52;;;;;;;;;69.50;52.00;;;;;16.91;36.79;103024.53;5064797;28;61900;-80
2022/03/19 09:33:18;;;;;;;;;67.75;50.25;;;;;16.99;36.84;103014.34;5081857;28;62005;-80
2022/03/19 09:35:45;;;;;;;;;65.25;48.00;;;;;17.06;36.86;103019.16;5081213;28;61876;-80
2022/03/19 09:38:11;;;;;;;;;71.50;50.75;;;;;16.94;36.40;103013.16;5082521;28;61920;-81
2022/03/19 09:40:37;;;;;;;;;69.75;47.00;;;;;16.99;36.82;103021.38;5064366;28;61805;-80
2022/03/19 09:43:02;;;;;;;;;67.50;49.75;;;;;17.10;36.70;103012.28;5081308;28;62876;-80
2022/03/19 09:45:29;;;;;;;;;60.50;46.50;;;;;17.09;36.18;103010.44;5064195;28;61913;-80
2022/03/19 09:47:56;;;;;;;;;59.50;42.50;;;;;17.12;36.31;103014.16;5082560;28;61705;-81
2022/03/19 09:50:22;;;;;;;;;60.25;50.50;;;;;17.23;36.57;103003.22;5082409;27;61955;-80
2022/03/19 09:52:55;;;;;;;;;80.00;54.00;;;;;17.30;36.20;103000.03;5081801;28;62286;-81
2022/03/19 09:55:26;;;;;;;;;61.75;46.00;;;;;17.46;36.31;102994.72;5081104;28;61853;-80
2022/03/19 09:57:54;;;;;;;;;63.25;50.50;;;;;17.59;35.77;102985.63;5080992;28;61752;-80
2022/03/19 10:00:24;;;;;;;;;69.25;49.25;;;;;17.69;35.37;102995.84;5082111;28;61701;-81
2022/03/19 10:02:53;;;;;;;;;66.50;50.00;;;;;17.82;35.25;102988.53;5063569;28;61915;-80
2022/03/19 10:10:58;;;;;;;;;64.50;48.75;;;;;17.85;34.06;102978.09;5053843;28;61971;-80
2022/03/19 10:13:25;;;;;;;;;66.50;51.00;;;;;17.91;34.25;102975.72;5080681;28;61954;-80
2022/03/19 10:15:50;;;;;;;;;64.75;46.50;;;;;18.08;34.35;102966.84;5083591;28;62251;-79
2022/03/19 10:18:17;;;;;;;;;65.25;46.75;;;;;18.15;33.47;102968.06;5082409;28;61867;-80
2022/03/19 10:20:43;;;;;;;;;48.25;41.00;;;;;18.13;33.07;102956.44;5081968;28;61929;-80
2022/03/19 10:23:08;;;;;;;;;34.25;19.25;;;;;18.08;32.59;102963.25;5065350;28;63523;-80
2022/03/19 10:25:34;;;;;;;;;56.25;45.50;;;;;18.28;33.18;102957.16;5085424;28;61820;-80
2022/03/19 10:28:13;;;;;;;;;65.75;49.50;;;;;18.38;32.36;102950.50;5083774;28;62206;-80
2022/03/19 10:30:40;;;;;;;;;60.75;49.25;;;;;18.28;31.78;102948.28;5067193;28;61806;-80
2022/03/19 10:33:10;;;;;;;;;65.75;46.50;;;;;18.41;32.48;102945.38;5084739;28;61811;-80
2022/03/19 10:35:41;;;;;;;;;60.50;43.25;;;;;18.57;32.71;102939.00;5084490;28;61891;-83
2022/03/19 10:38:23;;;;;;;;;60.50;48.50;;;;;18.67;32.03;102938.59;5085352;28;62020;-87
2022/03/19 10:40:51;;;;;;;;;55.50;45.00;;;;;18.70;31.76;102943.13;5082762;28;62466;-79
2022/03/19 10:43:19;;;;;;;;;65.50;49.00;;;;;18.76;31.40;102941.66;5080555;28;62185;-79
2022/03/19 10:45:49;;;;;;;;;59.75;43.00;;;;;18.87;31.69;102938.59;5079431;28;61991;-79
2022/03/19 10:48:23;;;;;;;;;58.50;42.75;;;;;18.97;31.09;102931.09;5083007;28;61762;-80
2022/03/19 10:50:50;;;;;;;;;62.25;44.50;;;;;19.08;31.22;102936.00;5081555;27;61959;-81
2022/03/19 10:53:18;;;;;;;;;61.00;46.75;;;;;19.15;30.95;102930.09;5080447;28;61950;-80
2022/03/19 10:55:44;;;;;;;;;61.00;44.75;;;;;19.21;30.14;102923.25;5081974;28;62085;-80
2022/03/19 10:58:10;;;;;;;;;62.50;45.00;;;;;19.34;30.28;102938.03;5079167;28;62099;-83
2022/03/19 11:00:36;;;;;;;;;61.25;44.25;;;;;19.35;29.78;102923.88;5073012;28;61902;-80
2022/03/19 11:03:17;;;;;;;;;57.50;46.25;;;;;19.20;29.18;102926.78;5081891;27;62016;-81
2022/03/19 11:05:45;;;;;;;;;63.50;44.50;;;;;19.46;29.60;102920.75;5085448;27;61943;-80
2022/03/19 11:08:13;;;;;;;;;62.25;47.25;;;;;19.66;29.73;102925.16;5067919;27;61897;-81
2022/03/19 11:10:40;;;;;;;;;57.75;43.25;;;;;19.80;29.48;102920.44;5066908;28;61725;-78
2022/03/19 11:13:12;;;;;;;;;47.00;36.75;;;;;19.91;28.83;102915.53;5061969;27;63799;-80
2022/03/19 11:15:39;;;;;;;;;53.25;41.25;;;;;20.07;28.61;102909.94;5087888;27;62330;-83
2022/03/19 11:18:07;;;;;;;;;47.75;37.25;;;;;20.20;28.52;102901.59;5078334;27;62088;-82
2022/03/19 11:20:36;;;;;;;;;55.25;40.50;;;;;20.21;27.69;102905.16;5084364;27;61882;-85
2022/03/19 11:23:05;;;;;;;;;54.00;40.75;;;;;20.42;28.33;102891.75;5082016;28;63790;-85
2022/03/19 11:25:45;;;;;;;;;55.00;43.50;;;;;20.68;28.08;102889.19;5081681;27;62174;-84
2022/03/19 11:28:12;;;;;;;;;54.00;42.75;;;;;20.89;27.90;102892.63;5081908;28;62061;-81
2022/03/19 11:30:41;;;;;;;;;56.25;41.25;;;;;20.91;27.42;102880.22;5084698;28;61762;-84